sensor_id;sensor_type;location;lat;lon;timestamp;temperature;humidity
13472;DHT22;6808;49.444;11.034;2023-04-25T00:00:41;9.30;99.90
13472;DHT22;6808;49.444;11.034;2023-04-25T00:03:07;9.30;99.90
13472;DHT22;6808;49.444;11.034;2023-04-25T00:05:34;9.20;99.90
13472;DHT22;6808;49.444;11.034;2023-04-25T00:08:00;9.20;99.90
13472;DHT22;6808;49.444;11.034;2023-04-25T00:10:25;9.30;99.90
13472;DHT22;6808;49.444;11.034;2023-04-25T00:12:51;9.20;99.90
13472;DHT22;6808;49.444;11.034;2023-04-25T00:15:17;9.20;99.90
13472;DHT22;6808;49.444;11.034;2023-04-25T00:17:43;9.20;99.90
13472;DHT22;6808;49.444;11.034;2023-04-25T00:20:08;9.30;99.90
13472;DHT22;6808;49.444;11.034;2023-04-25T00:22:35;9.30;99.90
13472;DHT22;6808;49.444;11.034;2023-04-25T00:25:06;9.30;99.90
13472;DHT22;6808;49.444;11.034;2023-04-25T00:27:31;9.20;99.90
13472;DHT22;6808;49.444;11.034;2023-04-25T00:29:57;9.20;99.90
13472;DHT22;6808;49.444;11.034;2023-04-25T00:32:23;9.20;99.90
13472;DHT22;6808;49.444;11.034;2023-04-25T00:34:48;9.20;99.90
13472;DHT22;6808;49.444;11.034;2023-04-25T00:37:14;9.20;99.90
13472;DHT22;6808;49.444;11.034;2023-04-25T00:39:39;9.20;99.90
13472;DHT22;6808;49.444;11.034;2023-04-25T00:42:05;9.20;99.90
13472;DHT22;6808;49.444;11.034;2023-04-25T00:44:31;9.10;99.90
13472;DHT22;6808;49.444;11.034;2023-04-25T00:46:57;9.10;99.90
13472;DHT22;6808;49.444;11.034;2023-04-25T00:49:23;9.10;99.90
13472;DHT22;6808;49.444;11.034;2023-04-25T00:51:49;9.20;99.90
13472;DHT22;6808;49.444;11.034;2023-04-25T00:54:14;9.20;99.90
13472;DHT22;6808;49.444;11.034;2023-04-25T00:56:41;9.20;99.90
13472;DHT22;6808;49.444;11.034;2023-04-25T00:59:09;9.20;99.90
13472;DHT22;6808;49.444;11.034;2023-04-25T01:01:35;9.20;99.90
13472;DHT22;6808;49.444;11.034;2023-04-25T01:04:01;9.20;99.90
13472;DHT22;6808;49.444;11.034;2023-04-25T01:06:26;9.20;99.90
13472;DHT22;6808;49.444;11.034;2023-04-25T01:08:53;9.10;99.90
13472;DHT22;6808;49.444;11.034;2023-04-25T01:11:18;9.10;99.90
13472;DHT22;6808;49.444;11.034;2023-04-25T01:13:44;9.10;99.90
13472;DHT22;6808;49.444;11.034;2023-04-25T01:16:10;9.10;99.90
13472;DHT22;6808;49.444;11.034;2023-04-25T01:18:40;9.10;99.90
13472;DHT22;6808;49.444;11.034;2023-04-25T01:21:08;9.10;99.90
13472;DHT22;6808;49.444;11.034;2023-04-25T01:23:35;9.10;99.90
13472;DHT22;6808;49.444;11.034;2023-04-25T01:26:01;9.10;99.90
13472;DHT22;6808;49.444;11.034;2023-04-25T01:28:28;9.10;99.90
13472;DHT22;6808;49.444;11.034;2023-04-25T01:30:54;9.10;99.90
13472;DHT22;6808;49.444;11.034;2023-04-25T01:33:21;9.10;99.90
13472;DHT22;6808;49.444;11.034;2023-04-25T01:35:47;9.00;99.90
13472;DHT22;6808;49.444;11.034;2023-04-25T01:38:13;9.00;99.90
13472;DHT22;6808;49.444;11.034;2023-04-25T01:40:40;9.00;99.90
13472;DHT22;6808;49.444;11.034;2023-04-25T01:43:06;9.00;99.90
13472;DHT22;6808;49.444;11.034;2023-04-25T01:45:33;9.00;99.90
13472;DHT22;6808;49.444;11.034;2023-04-25T01:48:01;9.70;99.90
13472;DHT22;6808;49.444;11.034;2023-04-25T01:50:27;9.00;99.90
13472;DHT22;6808;49.444;11.034;2023-04-25T01:52:53;8.90;99.90
13472;DHT22;6808;49.444;11.034;2023-04-25T01:55:19;9.00;99.90
13472;DHT22;6808;49.444;11.034;2023-04-25T01:57:44;9.00;99.90
13472;DHT22;6808;49.444;11.034;2023-04-25T02:00:11;9.00;99.90
13472;DHT22;6808;49.444;11.034;2023-04-25T02:02:36;9.00;99.90
13472;DHT22;6808;49.444;11.034;2023-04-25T02:05:02;9.00;99.90
13472;DHT22;6808;49.444;11.034;2023-04-25T02:07:28;9.00;99.90
13472;DHT22;6808;49.444;11.034;2023-04-25T02:09:53;9.00;99.90
13472;DHT22;6808;49.444;11.034;2023-04-25T02:12:19;9.00;99.90
13472;DHT22;6808;49.444;11.034;2023-04-25T02:14:44;9.00;99.90
13472;DHT22;6808;49.444;11.034;2023-04-25T02:17:10;8.90;99.90
13472;DHT22;6808;49.444;11.034;2023-04-25T02:19:38;8.90;99.90
13472;DHT22;6808;49.444;11.034;2023-04-25T02:22:03;8.90;99.90
13472;DHT22;6808;49.444;11.034;2023-04-25T02:24:29;8.90;99.90
13472;DHT22;6808;49.444;11.034;2023-04-25T02:26:54;8.90;99.90
13472;DHT22;6808;49.444;11.034;2023-04-25T02:29:21;8.90;99.90
13472;DHT22;6808;49.444;11.034;2023-04-25T02:31:47;8.90;99.90
13472;DHT22;6808;49.444;11.034;2023-04-25T02:34:12;8.90;99.90
13472;DHT22;6808;49.444;11.034;2023-04-25T02:36:38;8.90;99.90
13472;DHT22;6808;49.444;11.034;2023-04-25T02:39:03;8.90;99.90
13472;DHT22;6808;49.444;11.034;2023-04-25T02:41:29;8.90;99.90
13472;DHT22;6808;49.444;11.034;2023-04-25T02:43:55;8.80;99.90
13472;DHT22;6808;49.444;11.034;2023-04-25T02:46:20;8.80;99.90
13472;DHT22;6808;49.444;11.034;2023-04-25T02:48:46;8.80;99.90
13472;DHT22;6808;49.444;11.034;2023-04-25T02:51:12;8.70;99.90
13472;DHT22;6808;49.444;11.034;2023-04-25T02:53:37;8.80;99.90
13472;DHT22;6808;49.444;11.034;2023-04-25T02:56:03;8.80;99.90
13472;DHT22;6808;49.444;11.034;2023-04-25T02:58:29;8.80;99.90
13472;DHT22;6808;49.444;11.034;2023-04-25T03:00:54;8.80;99.90
13472;DHT22;6808;49.444;11.034;2023-04-25T03:03:20;8.80;99.90
13472;DHT22;6808;49.444;11.034;2023-04-25T03:05:48;8.70;99.90
13472;DHT22;6808;49.444;11.034;2023-04-25T03:08:14;8.80;99.90
13472;DHT22;6808;49.444;11.034;2023-04-25T03:10:39;8.80;99.90
13472;DHT22;6808;49.444;11.034;2023-04-25T03:13:05;8.70;99.90
13472;DHT22;6808;49.444;11.034;2023-04-25T03:15:30;8.70;99.90
13472;DHT22;6808;49.444;11.034;2023-04-25T03:17:56;8.70;99.90
13472;DHT22;6808;49.444;11.034;2023-04-25T03:20:22;8.70;99.90
13472;DHT22;6808;49.444;11.034;2023-04-25T03:22:47;8.70;99.90
13472;DHT22;6808;49.444;11.034;2023-04-25T03:25:13;8.70;99.90
13472;DHT22;6808;49.444;11.034;2023-04-25T03:27:38;8.70;99.90
13472;DHT22;6808;49.444;11.034;2023-04-25T03:30:04;8.60;99.90
13472;DHT22;6808;49.444;11.034;2023-04-25T03:32:30;8.60;99.90
13472;DHT22;6808;49.444;11.034;2023-04-25T03:34:56;8.70;99.90
13472;DHT22;6808;49.444;11.034;2023-04-25T03:37:21;8.70;99.90
13472;DHT22;6808;49.444;11.034;2023-04-25T03:39:47;8.70;99.90
13472;DHT22;6808;49.444;11.034;2023-04-25T03:42:12;8.70;99.90
13472;DHT22;6808;49.444;11.034;2023-04-25T03:44:38;8.60;99.90
13472;DHT22;6808;49.444;11.034;2023-04-25T03:47:03;8.60;99.90
13472;DHT22;6808;49.444;11.034;2023-04-25T03:49:29;8.60;99.90
13472;DHT22;6808;49.444;11.034;2023-04-25T03:51:54;8.50;99.90
13472;DHT22;6808;49.444;11.034;2023-04-25T03:54:20;8.50;99.90
13472;DHT22;6808;49.444;11.034;2023-04-25T03:56:45;8.50;99.90
13472;DHT22;6808;49.444;11.034;2023-04-25T03:59:11;8.40;99.90
13472;DHT22;6808;49.444;11.034;2023-04-25T04:01:37;8.40;99.90
13472;DHT22;6808;49.444;11.034;2023-04-25T04:04:02;8.40;99.90
13472;DHT22;6808;49.444;11.034;2023-04-25T04:06:28;8.40;99.90
13472;DHT22;6808;49.444;11.034;2023-04-25T04:08:54;8.40;99.90
13472;DHT22;6808;49.444;11.034;2023-04-25T04:11:20;8.50;99.90
13472;DHT22;6808;49.444;11.034;2023-04-25T04:13:46;8.50;99.90
13472;DHT22;6808;49.444;11.034;2023-04-25T04:16:11;8.40;99.90
13472;DHT22;6808;49.444;11.034;2023-04-25T04:18:37;8.40;99.90
13472;DHT22;6808;49.444;11.034;2023-04-25T04:21:02;8.40;99.90
13472;DHT22;6808;49.444;11.034;2023-04-25T04:23:28;8.40;99.90
13472;DHT22;6808;49.444;11.034;2023-04-25T04:25:54;8.50;99.90
13472;DHT22;6808;49.444;11.034;2023-04-25T04:28:20;8.50;99.90
13472;DHT22;6808;49.444;11.034;2023-04-25T04:30:47;8.50;99.90
13472;DHT22;6808;49.444;11.034;2023-04-25T04:33:13;8.50;99.90
13472;DHT22;6808;49.444;11.034;2023-04-25T04:35:40;8.50;99.90
13472;DHT22;6808;49.444;11.034;2023-04-25T04:38:07;8.40;99.90
13472;DHT22;6808;49.444;11.034;2023-04-25T04:40:33;8.40;99.90
13472;DHT22;6808;49.444;11.034;2023-04-25T04:43:00;8.50;99.90
13472;DHT22;6808;49.444;11.034;2023-04-25T04:45:25;8.50;99.90
13472;DHT22;6808;49.444;11.034;2023-04-25T04:47:52;8.50;99.90
13472;DHT22;6808;49.444;11.034;2023-04-25T04:50:20;8.50;99.90
13472;DHT22;6808;49.444;11.034;2023-04-25T04:52:46;8.50;99.90
13472;DHT22;6808;49.444;11.034;2023-04-25T04:55:11;8.50;99.90
13472;DHT22;6808;49.444;11.034;2023-04-25T04:57:37;8.40;99.90
13472;DHT22;6808;49.444;11.034;2023-04-25T05:00:04;8.40;99.90
13472;DHT22;6808;49.444;11.034;2023-04-25T05:02:30;8.40;99.90
13472;DHT22;6808;49.444;11.034;2023-04-25T05:04:56;8.30;99.90
13472;DHT22;6808;49.444;11.034;2023-04-25T05:07:22;8.30;99.90
13472;DHT22;6808;49.444;11.034;2023-04-25T05:09:47;8.30;99.90
13472;DHT22;6808;49.444;11.034;2023-04-25T05:12:13;8.30;99.90
13472;DHT22;6808;49.444;11.034;2023-04-25T05:14:38;8.40;99.90
13472;DHT22;6808;49.444;11.034;2023-04-25T05:17:04;8.30;99.90
13472;DHT22;6808;49.444;11.034;2023-04-25T05:19:33;8.40;99.90
13472;DHT22;6808;49.444;11.034;2023-04-25T05:21:59;8.40;99.90
13472;DHT22;6808;49.444;11.034;2023-04-25T05:24:25;8.40;99.90
13472;DHT22;6808;49.444;11.034;2023-04-25T05:26:50;8.30;99.90
13472;DHT22;6808;49.444;11.034;2023-04-25T05:29:16;8.30;99.90
13472;DHT22;6808;49.444;11.034;2023-04-25T05:31:41;8.40;99.90
13472;DHT22;6808;49.444;11.034;2023-04-25T05:34:07;8.40;99.90
13472;DHT22;6808;49.444;11.034;2023-04-25T05:36:32;8.40;99.90
13472;DHT22;6808;49.444;11.034;2023-04-25T05:38:58;8.40;99.90
13472;DHT22;6808;49.444;11.034;2023-04-25T05:41:23;8.40;99.90
13472;DHT22;6808;49.444;11.034;2023-04-25T05:43:49;8.40;99.90
13472;DHT22;6808;49.444;11.034;2023-04-25T05:46:15;7.70;99.90
13472;DHT22;6808;49.444;11.034;2023-04-25T05:48:42;8.50;99.90
13472;DHT22;6808;49.444;11.034;2023-04-25T05:51:08;8.50;99.90
13472;DHT22;6808;49.444;11.034;2023-04-25T05:53:33;8.50;99.90
13472;DHT22;6808;49.444;11.034;2023-04-25T05:55:59;8.50;99.90
13472;DHT22;6808;49.444;11.034;2023-04-25T05:58:25;8.50;99.90
13472;DHT22;6808;49.444;11.034;2023-04-25T06:00:50;8.50;99.90
13472;DHT22;6808;49.444;11.034;2023-04-25T06:03:16;8.50;99.90
13472;DHT22;6808;49.444;11.034;2023-04-25T06:05:42;8.50;99.90
13472;DHT22;6808;49.444;11.034;2023-04-25T06:08:08;8.50;99.90
13472;DHT22;6808;49.444;11.034;2023-04-25T06:10:35;8.50;99.90
13472;DHT22;6808;49.444;11.034;2023-04-25T06:13:01;8.40;99.90
13472;DHT22;6808;49.444;11.034;2023-04-25T06:15:26;8.50;99.90
13472;DHT22;6808;49.444;11.034;2023-04-25T06:17:52;8.50;99.90
13472;DHT22;6808;49.444;11.034;2023-04-25T06:20:17;8.40;99.90
13472;DHT22;6808;49.444;11.034;2023-04-25T06:22:43;8.80;99.90
13472;DHT22;6808;49.444;11.034;2023-04-25T06:25:09;8.40;99.90
13472;DHT22;6808;49.444;11.034;2023-04-25T06:27:34;8.50;99.90
13472;DHT22;6808;49.444;11.034;2023-04-25T06:30:00;8.40;99.90
13472;DHT22;6808;49.444;11.034;2023-04-25T06:32:25;8.40;99.90
13472;DHT22;6808;49.444;11.034;2023-04-25T06:34:53;8.40;99.90
13472;DHT22;6808;49.444;11.034;2023-04-25T06:37:18;8.40;99.90
13472;DHT22;6808;49.444;11.034;2023-04-25T06:39:44;8.40;99.90
13472;DHT22;6808;49.444;11.034;2023-04-25T06:42:09;8.50;99.90
13472;DHT22;6808;49.444;11.034;2023-04-25T06:44:35;8.40;99.90
13472;DHT22;6808;49.444;11.034;2023-04-25T06:47:01;8.30;99.90
13472;DHT22;6808;49.444;11.034;2023-04-25T06:49:26;9.00;99.90
13472;DHT22;6808;49.444;11.034;2023-04-25T06:51:52;8.30;99.90
13472;DHT22;6808;49.444;11.034;2023-04-25T06:54:17;8.30;99.90
13472;DHT22;6808;49.444;11.034;2023-04-25T06:56:43;8.30;99.90
13472;DHT22;6808;49.444;11.034;2023-04-25T06:59:08;8.20;99.90
13472;DHT22;6808;49.444;11.034;2023-04-25T07:01:34;8.20;99.90
13472;DHT22;6808;49.444;11.034;2023-04-25T07:04:01;8.30;99.90
13472;DHT22;6808;49.444;11.034;2023-04-25T07:06:27;8.40;99.90
13472;DHT22;6808;49.444;11.034;2023-04-25T07:08:53;8.40;99.90
13472;DHT22;6808;49.444;11.034;2023-04-25T07:11:19;8.40;99.90
13472;DHT22;6808;49.444;11.034;2023-04-25T07:13:44;8.50;99.90
13472;DHT22;6808;49.444;11.034;2023-04-25T07:16:10;8.50;99.90
13472;DHT22;6808;49.444;11.034;2023-04-25T07:18:36;8.50;99.90
13472;DHT22;6808;49.444;11.034;2023-04-25T07:21:01;8.50;99.90
13472;DHT22;6808;49.444;11.034;2023-04-25T07:23:27;8.40;99.90
13472;DHT22;6808;49.444;11.034;2023-04-25T07:25:52;8.40;99.90
13472;DHT22;6808;49.444;11.034;2023-04-25T07:28:18;8.60;99.90
13472;DHT22;6808;49.444;11.034;2023-04-25T07:30:44;8.30;99.90
13472;DHT22;6808;49.444;11.034;2023-04-25T07:33:09;8.30;99.90
13472;DHT22;6808;49.444;11.034;2023-04-25T07:35:35;8.30;99.90
13472;DHT22;6808;49.444;11.034;2023-04-25T07:38:02;8.20;99.90
13472;DHT22;6808;49.444;11.034;2023-04-25T07:40:27;8.10;99.90
13472;DHT22;6808;49.444;11.034;2023-04-25T07:42:53;8.10;99.90
13472;DHT22;6808;49.444;11.034;2023-04-25T07:45:18;8.00;99.90
13472;DHT22;6808;49.444;11.034;2023-04-25T07:47:44;8.00;99.90
13472;DHT22;6808;49.444;11.034;2023-04-25T07:50:10;8.10;99.90
13472;DHT22;6808;49.444;11.034;2023-04-25T07:52:36;8.20;99.90
13472;DHT22;6808;49.444;11.034;2023-04-25T07:55:01;8.20;99.90
13472;DHT22;6808;49.444;11.034;2023-04-25T07:57:27;8.20;99.90
13472;DHT22;6808;49.444;11.034;2023-04-25T07:59:53;8.20;99.90
13472;DHT22;6808;49.444;11.034;2023-04-25T08:02:18;8.20;99.90
13472;DHT22;6808;49.444;11.034;2023-04-25T08:04:44;8.10;99.90
13472;DHT22;6808;49.444;11.034;2023-04-25T08:07:09;7.90;99.90
13472;DHT22;6808;49.444;11.034;2023-04-25T08:09:35;7.90;99.90
13472;DHT22;6808;49.444;11.034;2023-04-25T08:12:02;8.70;99.90
13472;DHT22;6808;49.444;11.034;2023-04-25T08:14:30;7.90;99.90
13472;DHT22;6808;49.444;11.034;2023-04-25T08:17:04;8.00;99.90
13472;DHT22;6808;49.444;11.034;2023-04-25T08:19:30;8.10;99.90
13472;DHT22;6808;49.444;11.034;2023-04-25T08:21:56;8.10;99.90
13472;DHT22;6808;49.444;11.034;2023-04-25T08:24:22;8.20;99.90
13472;DHT22;6808;49.444;11.034;2023-04-25T08:26:48;8.20;99.90
13472;DHT22;6808;49.444;11.034;2023-04-25T08:29:14;8.30;99.90
13472;DHT22;6808;49.444;11.034;2023-04-25T08:31:39;8.30;99.90
13472;DHT22;6808;49.444;11.034;2023-04-25T08:34:05;8.40;99.90
13472;DHT22;6808;49.444;11.034;2023-04-25T08:36:31;8.60;99.90
13472;DHT22;6808;49.444;11.034;2023-04-25T08:38:57;8.60;99.90
13472;DHT22;6808;49.444;11.034;2023-04-25T08:41:23;8.70;99.90
13472;DHT22;6808;49.444;11.034;2023-04-25T08:43:49;8.70;99.90
13472;DHT22;6808;49.444;11.034;2023-04-25T08:46:18;8.80;99.90
13472;DHT22;6808;49.444;11.034;2023-04-25T08:48:45;8.90;99.90
13472;DHT22;6808;49.444;11.034;2023-04-25T08:51:17;8.90;99.90
13472;DHT22;6808;49.444;11.034;2023-04-25T08:53:44;9.00;99.90
13472;DHT22;6808;49.444;11.034;2023-04-25T08:56:12;9.10;99.90
13472;DHT22;6808;49.444;11.034;2023-04-25T08:58:39;9.20;99.90
13472;DHT22;6808;49.444;11.034;2023-04-25T09:01:05;9.20;99.90
13472;DHT22;6808;49.444;11.034;2023-04-25T09:03:30;9.30;99.90
13472;DHT22;6808;49.444;11.034;2023-04-25T09:05:56;9.30;99.90
13472;DHT22;6808;49.444;11.034;2023-04-25T09:08:23;9.30;99.90
13472;DHT22;6808;49.444;11.034;2023-04-25T09:10:48;9.30;99.90
13472;DHT22;6808;49.444;11.034;2023-04-25T09:13:23;9.20;99.90
13472;DHT22;6808;49.444;11.034;2023-04-25T09:15:51;9.10;99.90
13472;DHT22;6808;49.444;11.034;2023-04-25T09:18:28;9.10;99.90
13472;DHT22;6808;49.444;11.034;2023-04-25T09:20:55;9.10;99.90
13472;DHT22;6808;49.444;11.034;2023-04-25T09:23:22;9.10;99.90
13472;DHT22;6808;49.444;11.034;2023-04-25T09:25:50;9.10;99.90
13472;DHT22;6808;49.444;11.034;2023-04-25T09:28:15;9.00;99.90
13472;DHT22;6808;49.444;11.034;2023-04-25T09:30:42;9.10;99.90
13472;DHT22;6808;49.444;11.034;2023-04-25T09:33:09;9.30;99.90
13472;DHT22;6808;49.444;11.034;2023-04-25T09:35:36;9.50;99.90
13472;DHT22;6808;49.444;11.034;2023-04-25T09:38:13;9.70;99.90
13472;DHT22;6808;49.444;11.034;2023-04-25T09:40:44;10.10;99.90
13472;DHT22;6808;49.444;11.034;2023-04-25T09:43:18;10.20;99.90
13472;DHT22;6808;49.444;11.034;2023-04-25T09:45:43;10.40;99.90
13472;DHT22;6808;49.444;11.034;2023-04-25T09:48:11;10.50;99.90
13472;DHT22;6808;49.444;11.034;2023-04-25T09:50:37;10.60;99.60
13472;DHT22;6808;49.444;11.034;2023-04-25T09:53:06;10.60;99.30
13472;DHT22;6808;49.444;11.034;2023-04-25T09:55:32;10.60;99.90
13472;DHT22;6808;49.444;11.034;2023-04-25T09:58:05;10.80;99.90
13472;DHT22;6808;49.444;11.034;2023-04-25T10:00:33;11.00;99.90
13472;DHT22;6808;49.444;11.034;2023-04-25T10:03:01;11.20;99.90
13472;DHT22;6808;49.444;11.034;2023-04-25T10:05:32;11.40;99.90
13472;DHT22;6808;49.444;11.034;2023-04-25T10:08:00;11.30;98.80
13472;DHT22;6808;49.444;11.034;2023-04-25T10:10:28;11.30;99.00
13472;DHT22;6808;49.444;11.034;2023-04-25T10:12:55;11.20;98.20
13472;DHT22;6808;49.444;11.034;2023-04-25T10:15:21;11.20;98.90
13472;DHT22;6808;49.444;11.034;2023-04-25T10:17:49;11.20;99.50
13472;DHT22;6808;49.444;11.034;2023-04-25T10:20:14;11.10;98.80
13472;DHT22;6808;49.444;11.034;2023-04-25T10:22:47;11.00;98.50
13472;DHT22;6808;49.444;11.034;2023-04-25T10:25:14;11.20;99.00
13472;DHT22;6808;49.444;11.034;2023-04-25T10:27:40;11.50;99.90
13472;DHT22;6808;49.444;11.034;2023-04-25T10:30:13;11.70;97.90
13472;DHT22;6808;49.444;11.034;2023-04-25T10:32:42;11.90;97.30
13472;DHT22;6808;49.444;11.034;2023-04-25T10:35:19;11.90;97.00
13472;DHT22;6808;49.444;11.034;2023-04-25T10:38:04;12.00;98.00
13472;DHT22;6808;49.444;11.034;2023-04-25T10:40:33;11.90;95.90
13472;DHT22;6808;49.444;11.034;2023-04-25T10:43:33;11.80;96.70
13472;DHT22;6808;49.444;11.034;2023-04-25T10:45:59;11.70;94.70
13472;DHT22;6808;49.444;11.034;2023-04-25T10:48:30;11.70;96.10
13472;DHT22;6808;49.444;11.034;2023-04-25T10:53:34;12.10;95.10
13472;DHT22;6808;49.444;11.034;2023-04-25T10:56:00;12.40;95.30
13472;DHT22;6808;49.444;11.034;2023-04-25T10:58:26;12.50;91.90
13472;DHT22;6808;49.444;11.034;2023-04-25T11:00:51;12.50;93.00
13472;DHT22;6808;49.444;11.034;2023-04-25T11:03:17;12.70;92.30
13472;DHT22;6808;49.444;11.034;2023-04-25T11:05:47;12.30;91.30
13472;DHT22;6808;49.444;11.034;2023-04-25T11:08:18;12.10;91.20
13472;DHT22;6808;49.444;11.034;2023-04-25T11:10:50;11.90;91.10
13472;DHT22;6808;49.444;11.034;2023-04-25T11:13:15;11.90;91.40
13472;DHT22;6808;49.444;11.034;2023-04-25T11:15:42;12.00;91.80
13472;DHT22;6808;49.444;11.034;2023-04-25T11:18:07;12.30;91.10
13472;DHT22;6808;49.444;11.034;2023-04-25T11:20:33;12.40;87.30
13472;DHT22;6808;49.444;11.034;2023-04-25T11:22:58;12.40;90.80
13472;DHT22;6808;49.444;11.034;2023-04-25T11:25:25;12.30;90.10
13472;DHT22;6808;49.444;11.034;2023-04-25T11:27:52;12.20;89.10
13472;DHT22;6808;49.444;11.034;2023-04-25T11:30:19;12.00;87.80
13472;DHT22;6808;49.444;11.034;2023-04-25T11:32:45;12.00;87.20
13472;DHT22;6808;49.444;11.034;2023-04-25T11:35:11;11.90;84.90
13472;DHT22;6808;49.444;11.034;2023-04-25T11:37:39;11.90;88.50
13472;DHT22;6808;49.444;11.034;2023-04-25T11:40:05;12.00;88.50
13472;DHT22;6808;49.444;11.034;2023-04-25T11:42:33;12.00;88.20
13472;DHT22;6808;49.444;11.034;2023-04-25T11:44:59;12.00;86.80
13472;DHT22;6808;49.444;11.034;2023-04-25T11:47:32;12.10;88.40
13472;DHT22;6808;49.444;11.034;2023-04-25T11:50:02;12.10;90.10
13472;DHT22;6808;49.444;11.034;2023-04-25T11:52:42;12.30;90.20
13472;DHT22;6808;49.444;11.034;2023-04-25T11:55:09;12.40;90.60
13472;DHT22;6808;49.444;11.034;2023-04-25T11:57:38;12.70;89.30
13472;DHT22;6808;49.444;11.034;2023-04-25T12:00:09;12.80;90.40
13472;DHT22;6808;49.444;11.034;2023-04-25T12:02:36;13.20;90.30
13472;DHT22;6808;49.444;11.034;2023-04-25T12:05:02;13.40;83.30
13472;DHT22;6808;49.444;11.034;2023-04-25T12:07:31;13.60;81.20
13472;DHT22;6808;49.444;11.034;2023-04-25T12:09:59;13.80;80.90
13472;DHT22;6808;49.444;11.034;2023-04-25T12:12:31;13.90;77.60
13472;DHT22;6808;49.444;11.034;2023-04-25T12:15:17;14.00;78.60
13472;DHT22;6808;49.444;11.034;2023-04-25T12:17:50;14.00;75.00
13472;DHT22;6808;49.444;11.034;2023-04-25T12:20:18;14.10;74.90
13472;DHT22;6808;49.444;11.034;2023-04-25T12:22:46;14.00;76.30
13472;DHT22;6808;49.444;11.034;2023-04-25T12:25:13;14.00;78.90
13472;DHT22;6808;49.444;11.034;2023-04-25T12:28:15;13.70;77.50
13472;DHT22;6808;49.444;11.034;2023-04-25T12:31:00;13.60;78.10
13472;DHT22;6808;49.444;11.034;2023-04-25T12:33:37;13.40;77.80
13472;DHT22;6808;49.444;11.034;2023-04-25T12:36:05;13.40;79.80
13472;DHT22;6808;49.444;11.034;2023-04-25T12:38:41;13.40;78.90
13472;DHT22;6808;49.444;11.034;2023-04-25T12:41:08;13.40;79.20
13472;DHT22;6808;49.444;11.034;2023-04-25T12:43:34;13.20;75.60
13472;DHT22;6808;49.444;11.034;2023-04-25T12:46:00;13.10;77.80
13472;DHT22;6808;49.444;11.034;2023-04-25T12:48:26;13.00;77.40
13472;DHT22;6808;49.444;11.034;2023-04-25T12:50:52;12.90;78.40
13472;DHT22;6808;49.444;11.034;2023-04-25T12:53:19;12.80;79.40
13472;DHT22;6808;49.444;11.034;2023-04-25T12:55:45;12.80;81.50
13472;DHT22;6808;49.444;11.034;2023-04-25T12:58:12;12.80;82.40
13472;DHT22;6808;49.444;11.034;2023-04-25T13:00:38;12.60;77.20
13472;DHT22;6808;49.444;11.034;2023-04-25T13:03:04;12.50;78.60
13472;DHT22;6808;49.444;11.034;2023-04-25T13:05:30;12.50;80.50
13472;DHT22;6808;49.444;11.034;2023-04-25T13:07:56;12.50;83.40
13472;DHT22;6808;49.444;11.034;2023-04-25T13:10:21;12.50;80.10
13472;DHT22;6808;49.444;11.034;2023-04-25T13:12:47;12.40;79.40
13472;DHT22;6808;49.444;11.034;2023-04-25T13:15:13;12.40;83.10
13472;DHT22;6808;49.444;11.034;2023-04-25T13:17:41;12.50;83.20
13472;DHT22;6808;49.444;11.034;2023-04-25T13:20:07;12.60;83.00
13472;DHT22;6808;49.444;11.034;2023-04-25T13:22:35;12.70;82.70
13472;DHT22;6808;49.444;11.034;2023-04-25T13:25:02;12.70;80.30
13472;DHT22;6808;49.444;11.034;2023-04-25T13:27:28;12.60;80.70
13472;DHT22;6808;49.444;11.034;2023-04-25T13:29:54;12.70;85.60
13472;DHT22;6808;49.444;11.034;2023-04-25T13:32:19;12.70;82.40
13472;DHT22;6808;49.444;11.034;2023-04-25T13:34:45;12.70;84.00
13472;DHT22;6808;49.444;11.034;2023-04-25T13:37:10;12.80;81.20
13472;DHT22;6808;49.444;11.034;2023-04-25T13:39:36;13.50;82.40
13472;DHT22;6808;49.444;11.034;2023-04-25T13:42:02;12.70;79.90
13472;DHT22;6808;49.444;11.034;2023-04-25T13:44:28;12.70;83.30
13472;DHT22;6808;49.444;11.034;2023-04-25T13:46:54;12.60;82.30
13472;DHT22;6808;49.444;11.034;2023-04-25T13:49:20;12.50;80.30
13472;DHT22;6808;49.444;11.034;2023-04-25T13:51:45;12.30;81.30
13472;DHT22;6808;49.444;11.034;2023-04-25T13:54:11;12.30;83.00
13472;DHT22;6808;49.444;11.034;2023-04-25T13:56:36;12.30;81.90
13472;DHT22;6808;49.444;11.034;2023-04-25T13:59:02;12.50;82.10
13472;DHT22;6808;49.444;11.034;2023-04-25T14:01:28;12.00;83.40
13472;DHT22;6808;49.444;11.034;2023-04-25T14:03:55;12.00;82.20
13472;DHT22;6808;49.444;11.034;2023-04-25T14:06:21;12.00;82.50
13472;DHT22;6808;49.444;11.034;2023-04-25T14:08:49;12.00;84.10
13472;DHT22;6808;49.444;11.034;2023-04-25T14:11:15;12.00;84.30
13472;DHT22;6808;49.444;11.034;2023-04-25T14:13:45;12.00;84.30
13472;DHT22;6808;49.444;11.034;2023-04-25T14:16:10;12.10;84.10
13472;DHT22;6808;49.444;11.034;2023-04-25T14:18:36;12.10;85.20
13472;DHT22;6808;49.444;11.034;2023-04-25T14:21:01;12.10;85.30
13472;DHT22;6808;49.444;11.034;2023-04-25T14:23:27;12.10;86.40
13472;DHT22;6808;49.444;11.034;2023-04-25T14:25:53;12.10;86.50
13472;DHT22;6808;49.444;11.034;2023-04-25T14:28:19;11.90;83.50
13472;DHT22;6808;49.444;11.034;2023-04-25T14:30:45;11.80;84.00
13472;DHT22;6808;49.444;11.034;2023-04-25T14:33:10;11.80;86.40
13472;DHT22;6808;49.444;11.034;2023-04-25T14:35:37;11.70;86.50
13472;DHT22;6808;49.444;11.034;2023-04-25T14:38:03;11.50;86.20
13472;DHT22;6808;49.444;11.034;2023-04-25T14:40:28;11.50;87.00
13472;DHT22;6808;49.444;11.034;2023-04-25T14:42:54;11.40;87.20
13472;DHT22;6808;49.444;11.034;2023-04-25T14:45:20;11.30;87.00
13472;DHT22;6808;49.444;11.034;2023-04-25T14:47:45;11.40;90.00
13472;DHT22;6808;49.444;11.034;2023-04-25T14:50:11;11.40;89.80
13472;DHT22;6808;49.444;11.034;2023-04-25T14:52:37;11.40;90.90
13472;DHT22;6808;49.444;11.034;2023-04-25T14:55:03;11.40;90.90
13472;DHT22;6808;49.444;11.034;2023-04-25T14:57:33;11.30;90.80
13472;DHT22;6808;49.444;11.034;2023-04-25T14:59:59;11.30;91.10
13472;DHT22;6808;49.444;11.034;2023-04-25T15:02:25;11.30;90.40
13472;DHT22;6808;49.444;11.034;2023-04-25T15:04:51;11.20;90.20
13472;DHT22;6808;49.444;11.034;2023-04-25T15:07:16;11.20;89.90
13472;DHT22;6808;49.444;11.034;2023-04-25T15:09:42;11.20;90.00
13472;DHT22;6808;49.444;11.034;2023-04-25T15:12:08;11.20;89.60
13472;DHT22;6808;49.444;11.034;2023-04-25T15:14:33;11.20;90.80
13472;DHT22;6808;49.444;11.034;2023-04-25T15:17:00;11.20;90.50
13472;DHT22;6808;49.444;11.034;2023-04-25T15:19:25;11.30;90.50
13472;DHT22;6808;49.444;11.034;2023-04-25T15:21:51;11.30;89.80
13472;DHT22;6808;49.444;11.034;2023-04-25T15:24:17;11.30;89.90
13472;DHT22;6808;49.444;11.034;2023-04-25T15:26:43;11.30;90.10
13472;DHT22;6808;49.444;11.034;2023-04-25T15:29:09;11.20;87.40
13472;DHT22;6808;49.444;11.034;2023-04-25T15:31:36;11.20;90.40
13472;DHT22;6808;49.444;11.034;2023-04-25T15:34:01;11.10;90.10
13472;DHT22;6808;49.444;11.034;2023-04-25T15:36:28;11.10;90.80
13472;DHT22;6808;49.444;11.034;2023-04-25T15:38:54;11.00;91.30